createdAt,value
2018-02-21T00:00:53.130Z,1029.93
2018-02-21T00:02:20.123Z,1029.95
2018-02-21T00:03:46.984Z,1029.96
2018-02-21T00:05:13.835Z,1029.93
2018-02-21T00:06:40.947Z,1029.94
2018-02-21T00:08:08.301Z,1029.95
2018-02-21T00:09:34.942Z,1029.92
2018-02-21T00:11:02.150Z,1029.90
2018-02-21T00:12:28.673Z,1029.90
2018-02-21T00:13:55.544Z,1029.90
2018-02-21T00:15:22.565Z,1029.92
2018-02-21T00:16:49.840Z,1029.91
2018-02-21T00:18:16.897Z,1029.93
2018-02-21T00:19:43.894Z,1029.93
2018-02-21T00:21:10.448Z,1029.94
2018-02-21T00:22:37.422Z,1029.91
2018-02-21T00:24:04.391Z,1029.90
2018-02-21T00:25:31.301Z,1029.91
2018-02-21T00:26:58.379Z,1029.91
2018-02-21T00:28:24.812Z,1029.89
2018-02-21T00:29:51.807Z,1029.88
2018-02-21T00:31:19.019Z,1029.87
2018-02-21T00:32:46.070Z,1029.86
2018-02-21T00:34:13.121Z,1029.86
2018-02-21T00:35:40.319Z,1029.85
2018-02-21T00:37:07.229Z,1029.85
2018-02-21T00:38:33.904Z,1029.88
2018-02-21T00:40:01.068Z,1029.89
2018-02-21T00:41:28.181Z,1029.90
2018-02-21T00:42:55.369Z,1029.91
2018-02-21T00:44:22.031Z,1029.94
2018-02-21T00:45:49.197Z,1029.95
2018-02-21T00:47:15.734Z,1029.96
2018-02-21T00:48:42.899Z,1029.91
2018-02-21T00:50:09.980Z,1029.92
2018-02-21T00:51:37.190Z,1029.99
2018-02-21T00:53:04.308Z,1029.99
2018-02-21T00:54:31.432Z,1029.99
2018-02-21T00:55:57.850Z,1029.99
2018-02-21T00:57:25.061Z,1029.99
2018-02-21T00:58:51.967Z,1030.00
2018-02-21T01:00:18.869Z,1030.00
2018-02-21T01:01:45.826Z,1030.00
2018-02-21T01:03:12.922Z,1030.02
2018-02-21T01:04:40.004Z,1030.05
2018-02-21T01:06:06.796Z,1030.07
2018-02-21T01:07:33.951Z,1030.03
2018-02-21T01:09:01.078Z,1030.03
2018-02-21T01:10:27.797Z,1030.05
2018-02-21T01:11:54.944Z,1030.04
2018-02-21T01:13:22.123Z,1030.00
2018-02-21T01:14:49.437Z,1029.99
2018-02-21T01:16:16.447Z,1030.01
2018-02-21T01:17:43.061Z,1030.00
2018-02-21T01:19:09.591Z,1029.98
2018-02-21T01:20:36.825Z,1029.98
2018-02-21T01:22:03.738Z,1029.94
2018-02-21T01:23:30.542Z,1029.92
2018-02-21T01:24:57.616Z,1029.89
2018-02-21T01:26:24.848Z,1029.87
2018-02-21T01:27:51.988Z,1029.83
2018-02-21T01:29:18.360Z,1029.82
2018-02-21T01:30:45.219Z,1029.80
2018-02-21T01:32:12.442Z,1029.76
2018-02-21T01:33:39.596Z,1029.75
2018-02-21T01:35:06.213Z,1029.70
2018-02-21T01:36:33.478Z,1029.72
2018-02-21T01:38:00.574Z,1029.66
2018-02-21T01:39:27.787Z,1029.65
2018-02-21T01:40:53.979Z,1029.64
2018-02-21T01:42:20.369Z,1029.61
2018-02-21T01:43:47.165Z,1029.59
2018-02-21T01:45:14.336Z,1029.64
2018-02-21T01:46:40.787Z,1029.67
2018-02-21T01:48:07.921Z,1029.67
2018-02-21T01:49:34.898Z,1029.69
2018-02-21T01:51:01.976Z,1029.69
2018-02-21T01:52:28.948Z,1029.70
2018-02-21T01:53:56.093Z,1029.69
2018-02-21T01:55:23.190Z,1029.70
2018-02-21T01:56:50.367Z,1029.70
2018-02-21T01:58:17.468Z,1029.72
2018-02-21T01:59:44.824Z,1029.68
2018-02-21T02:01:11.998Z,1029.69
2018-02-21T02:02:39.235Z,1029.70
2018-02-21T02:04:06.345Z,1029.70
2018-02-21T02:05:33.314Z,1029.74
2018-02-21T02:07:00.396Z,1029.78
2018-02-21T02:08:27.571Z,1029.79
2018-02-21T02:09:54.742Z,1029.79
2018-02-21T02:11:21.776Z,1029.80
2018-02-21T02:12:48.993Z,1029.81
2018-02-21T02:14:16.028Z,1029.80
2018-02-21T02:15:42.934Z,1029.78
2018-02-21T02:17:09.263Z,1029.77
2018-02-21T02:18:36.366Z,1029.73
2018-02-21T02:20:03.507Z,1029.71
2018-02-21T02:21:30.323Z,1029.72
2018-02-21T02:22:57.408Z,1029.74
2018-02-21T02:24:24.438Z,1029.75
2018-02-21T02:25:50.932Z,1029.75
2018-02-21T02:27:18.137Z,1029.76
2018-02-21T02:28:45.231Z,1029.79
2018-02-21T02:30:12.493Z,1029.81
2018-02-21T02:31:39.586Z,1029.85
2018-02-21T02:33:05.891Z,1029.86
2018-02-21T02:34:33.096Z,1029.89
2018-02-21T02:35:59.744Z,1029.86
2018-02-21T02:37:26.190Z,1029.83
2018-02-21T02:38:53.460Z,1029.81
2018-02-21T02:40:20.727Z,1029.84
2018-02-21T02:41:47.683Z,1029.82
2018-02-21T02:43:14.902Z,1029.80
2018-02-21T02:44:41.819Z,1029.75
2018-02-21T02:46:09.161Z,1029.67
2018-02-21T02:47:35.921Z,1029.61
2018-02-21T02:49:03.079Z,1029.55
2018-02-21T02:50:30.206Z,1029.57
2018-02-21T02:51:57.348Z,1029.59
2018-02-21T02:53:24.538Z,1029.63
2018-02-21T02:54:51.142Z,1029.62
2018-02-21T02:56:18.308Z,1029.65
2018-02-21T02:57:45.532Z,1029.66
2018-02-21T02:59:12.698Z,1029.67
2018-02-21T03:00:39.814Z,1029.66
2018-02-21T03:02:06.848Z,1029.67
2018-02-21T03:03:33.979Z,1029.70
2018-02-21T03:05:00.749Z,1029.77
2018-02-21T03:06:27.814Z,1029.84
2018-02-21T03:07:55.113Z,1029.93
2018-02-21T03:09:21.445Z,1029.98
2018-02-21T03:10:48.534Z,1029.98
2018-02-21T03:12:15.984Z,1029.94
2018-02-21T03:13:42.911Z,1029.92
2018-02-21T03:15:09.584Z,1029.92
2018-02-21T03:16:36.632Z,1029.95
2018-02-21T03:18:03.778Z,1029.96
2018-02-21T03:19:30.846Z,1029.96
2018-02-21T03:20:57.774Z,1029.96
2018-02-21T03:22:24.942Z,1029.93
2018-02-21T03:23:51.198Z,1029.91
2018-02-21T03:25:18.596Z,1029.92
2018-02-21T03:26:45.590Z,1029.96
2018-02-21T03:28:12.059Z,1029.96
2018-02-21T03:29:39.137Z,1029.94
2018-02-21T03:31:06.264Z,1029.93
2018-02-21T03:32:33.550Z,1029.92
2018-02-21T03:33:59.895Z,1029.92
2018-02-21T03:35:26.536Z,1029.93
2018-02-21T03:36:53.071Z,1029.97
2018-02-21T03:38:20.249Z,1030.00
2018-02-21T03:39:46.676Z,1030.05
2018-02-21T03:41:13.220Z,1030.03
2018-02-21T03:42:40.178Z,1030.02
2018-02-21T03:44:07.425Z,1030.03
2018-02-21T03:45:34.599Z,1030.01
2018-02-21T03:47:01.735Z,1030.02
2018-02-21T03:48:28.807Z,1030.05
2018-02-21T03:49:55.857Z,1030.05
2018-02-21T03:51:23.046Z,1030.06
2018-02-21T03:52:49.756Z,1030.08
2018-02-21T03:54:16.756Z,1030.11
2018-02-21T03:55:43.411Z,1030.16
2018-02-21T03:57:10.390Z,1030.16
2018-02-21T03:58:37.629Z,1030.16
2018-02-21T04:00:04.419Z,1030.14
2018-02-21T04:01:31.512Z,1030.14
2018-02-21T04:02:58.463Z,1030.12
2018-02-21T04:04:25.482Z,1030.14
2018-02-21T04:05:52.215Z,1030.14
2018-02-21T04:07:19.343Z,1030.14
2018-02-21T04:08:46.429Z,1030.13
2018-02-21T04:10:14.447Z,1030.09
2018-02-21T04:11:40.584Z,1030.08
2018-02-21T04:13:07.804Z,1030.05
2018-02-21T04:14:34.829Z,1030.06
2018-02-21T04:16:02.067Z,1030.07
2018-02-21T04:17:28.620Z,1030.04
2018-02-21T04:18:55.868Z,1030.04
2018-02-21T04:20:22.848Z,1030.05
2018-02-21T04:21:49.788Z,1030.03
2018-02-21T04:23:17.144Z,1030.03
2018-02-21T04:24:44.513Z,1030.04
2018-02-21T04:26:11.667Z,1030.04
2018-02-21T04:27:38.750Z,1030.00
2018-02-21T04:29:05.566Z,1029.98
2018-02-21T04:30:32.828Z,1029.98
2018-02-21T04:31:59.674Z,1029.98
2018-02-21T04:33:26.278Z,1030.02
2018-02-21T04:34:53.362Z,1030.03
2018-02-21T04:36:20.500Z,1030.02
2018-02-21T04:37:47.554Z,1029.99
2018-02-21T04:39:14.484Z,1029.94
2018-02-21T04:40:41.677Z,1029.96
2018-02-21T04:42:08.532Z,1029.95
2018-02-21T04:43:35.537Z,1029.97
2018-02-21T04:45:02.675Z,1029.93
2018-02-21T04:46:28.921Z,1029.92
2018-02-21T04:47:56.158Z,1029.91
2018-02-21T04:49:22.873Z,1029.92
2018-02-21T04:50:49.449Z,1029.88
2018-02-21T04:52:15.922Z,1029.91
2018-02-21T04:53:42.933Z,1029.93
2018-02-21T04:55:10.096Z,1029.95
2018-02-21T04:56:37.246Z,1029.97
2018-02-21T04:58:04.275Z,1029.96
2018-02-21T04:59:30.945Z,1029.96
2018-02-21T05:00:58.225Z,1029.97
2018-02-21T05:02:24.559Z,1029.98
2018-02-21T05:03:51.598Z,1029.93
2018-02-21T05:05:18.803Z,1029.91
2018-02-21T05:06:46.138Z,1029.91
2018-02-21T05:08:13.094Z,1029.91
2018-02-21T05:09:40.336Z,1029.88
2018-02-21T05:11:07.486Z,1029.85
2018-02-21T05:12:34.564Z,1029.88
2018-02-21T05:14:01.449Z,1029.91
2018-02-21T05:15:28.484Z,1029.94
2018-02-21T05:16:55.124Z,1029.99
2018-02-21T05:18:22.285Z,1030.00
2018-02-21T05:19:49.313Z,1030.00
2018-02-21T05:21:15.893Z,1030.02
2018-02-21T05:22:43.067Z,1030.02
2018-02-21T05:24:09.982Z,1030.01
2018-02-21T05:25:37.111Z,1029.98
2018-02-21T05:27:03.919Z,1029.99
2018-02-21T05:28:30.542Z,1030.03
2018-02-21T05:29:57.580Z,1030.02
2018-02-21T05:31:24.736Z,1030.02
2018-02-21T05:32:51.806Z,1030.03
2018-02-21T05:34:19.083Z,1030.07
2018-02-21T05:35:46.132Z,1030.09
2018-02-21T05:37:13.105Z,1030.12
2018-02-21T05:38:39.757Z,1030.12
2018-02-21T05:40:07.035Z,1030.09
2018-02-21T05:41:33.784Z,1030.06
2018-02-21T05:43:00.951Z,1030.02
2018-02-21T05:44:27.937Z,1030.00
2018-02-21T05:45:55.239Z,1030.01
2018-02-21T05:47:22.003Z,1030.04
2018-02-21T05:48:49.030Z,1030.08
2018-02-21T05:50:16.257Z,1030.11
2018-02-21T05:51:43.123Z,1030.15
2018-02-21T05:53:09.852Z,1030.19
2018-02-21T05:54:37.000Z,1030.20
2018-02-21T05:56:04.213Z,1030.24
2018-02-21T05:57:31.286Z,1030.28
2018-02-21T05:58:58.116Z,1030.29
2018-02-21T06:00:24.730Z,1030.28
2018-02-21T06:01:52.000Z,1030.26
2018-02-21T06:03:19.032Z,1030.24
2018-02-21T06:04:45.956Z,1030.22
2018-02-21T06:06:13.140Z,1030.19
2018-02-21T06:07:40.309Z,1030.18
2018-02-21T06:09:07.470Z,1030.22
2018-02-21T06:10:34.086Z,1030.27
2018-02-21T06:12:00.991Z,1030.33
2018-02-21T06:13:28.230Z,1030.37
2018-02-21T06:14:55.248Z,1030.38
2018-02-21T06:16:22.423Z,1030.41
2018-02-21T06:17:49.644Z,1030.41
2018-02-21T06:19:16.646Z,1030.43
2018-02-21T06:20:43.743Z,1030.43
2018-02-21T06:22:10.979Z,1030.42
2018-02-21T06:23:37.918Z,1030.46
2018-02-21T06:25:05.065Z,1030.49
2018-02-21T06:26:31.714Z,1030.53
2018-02-21T06:27:58.627Z,1030.53
2018-02-21T06:29:25.260Z,1030.52
2018-02-21T06:30:52.381Z,1030.54
2018-02-21T06:32:19.313Z,1030.55
2018-02-21T06:33:46.288Z,1030.57
2018-02-21T06:35:13.349Z,1030.56
2018-02-21T06:36:40.623Z,1030.53
2018-02-21T06:38:07.123Z,1030.54
2018-02-21T06:39:34.370Z,1030.55
2018-02-21T06:41:01.305Z,1030.57
2018-02-21T06:42:28.596Z,1030.55
2018-02-21T06:43:55.656Z,1030.54
2018-02-21T06:45:22.360Z,1030.53
2018-02-21T06:46:49.532Z,1030.51
2018-02-21T06:48:16.091Z,1030.47
2018-02-21T06:49:43.314Z,1030.44
2018-02-21T06:51:10.315Z,1030.41
2018-02-21T06:52:36.904Z,1030.40
2018-02-21T06:54:04.003Z,1030.35
2018-02-21T06:55:30.983Z,1030.35
2018-02-21T06:56:58.042Z,1030.33
2018-02-21T06:58:24.875Z,1030.32
2018-02-21T06:59:51.627Z,1030.31
2018-02-21T07:01:18.912Z,1030.29
2018-02-21T07:02:46.188Z,1030.29
2018-02-21T07:04:12.245Z,1030.30
2018-02-21T07:05:39.082Z,1030.31
2018-02-21T07:07:05.933Z,1030.32
2018-02-21T07:08:32.652Z,1030.33
2018-02-21T07:09:59.759Z,1030.36
2018-02-21T07:11:26.255Z,1030.38
2018-02-21T07:12:53.271Z,1030.41
2018-02-21T07:14:20.596Z,1030.44
2018-02-21T07:15:47.235Z,1030.46
2018-02-21T07:17:14.492Z,1030.47
2018-02-21T07:18:41.634Z,1030.47
2018-02-21T07:20:08.793Z,1030.47
2018-02-21T07:21:35.816Z,1030.45
2018-02-21T07:23:02.895Z,1030.42
2018-02-21T07:24:30.092Z,1030.42
2018-02-21T07:25:57.089Z,1030.40
2018-02-21T07:27:24.194Z,1030.39
2018-02-21T07:28:51.368Z,1030.40
2018-02-21T07:30:18.481Z,1030.41
2018-02-21T07:31:45.620Z,1030.43
2018-02-21T07:33:12.784Z,1030.44
2018-02-21T07:34:39.858Z,1030.44
2018-02-21T07:36:06.929Z,1030.40
2018-02-21T07:37:33.852Z,1030.41
2018-02-21T07:39:00.605Z,1030.41
2018-02-21T07:40:27.801Z,1030.41
2018-02-21T07:41:54.902Z,1030.42
2018-02-21T07:43:21.874Z,1030.45
2018-02-21T07:44:49.000Z,1030.48
2018-02-21T07:46:16.008Z,1030.47
2018-02-21T07:47:43.314Z,1030.49
2018-02-21T07:49:10.105Z,1030.51
2018-02-21T07:50:37.163Z,1030.52
2018-02-21T07:52:03.581Z,1030.56
2018-02-21T07:53:30.618Z,1030.59
2018-02-21T07:54:57.594Z,1030.57
2018-02-21T07:56:24.659Z,1030.58
2018-02-21T07:57:51.680Z,1030.59
2018-02-21T07:59:18.829Z,1030.60
2018-02-21T08:00:45.957Z,1030.60
2018-02-21T08:02:12.951Z,1030.62
2018-02-21T08:03:40.155Z,1030.61
2018-02-21T08:05:06.929Z,1030.64
2018-02-21T08:06:34.057Z,1030.67
2018-02-21T08:08:01.080Z,1030.70
2018-02-21T08:09:28.219Z,1030.73
2018-02-21T08:10:54.808Z,1030.76
2018-02-21T08:12:21.811Z,1030.79
2018-02-21T08:13:48.810Z,1030.80
2018-02-21T08:15:15.521Z,1030.80
2018-02-21T08:16:42.507Z,1030.83
2018-02-21T08:18:09.243Z,1030.85
2018-02-21T08:19:36.441Z,1030.83
2018-02-21T08:21:03.588Z,1030.84
2018-02-21T08:22:30.572Z,1030.81
2018-02-21T08:23:57.423Z,1030.80
2018-02-21T08:25:24.704Z,1030.76
2018-02-21T08:26:51.308Z,1030.75
2018-02-21T08:28:18.469Z,1030.74
2018-02-21T08:29:45.563Z,1030.76
2018-02-21T08:31:12.686Z,1030.76
2018-02-21T08:32:39.795Z,1030.76
2018-02-21T08:34:07.126Z,1030.78
2018-02-21T08:35:34.167Z,1030.79
2018-02-21T08:37:01.012Z,1030.82
2018-02-21T08:38:28.063Z,1030.83
2018-02-21T08:39:55.057Z,1030.82
2018-02-21T08:41:22.166Z,1030.83
2018-02-21T08:42:49.362Z,1030.84
2018-02-21T08:44:16.382Z,1030.82
2018-02-21T08:45:43.497Z,1030.85
2018-02-21T08:47:10.816Z,1030.84
2018-02-21T08:48:37.901Z,1030.84
2018-02-21T08:50:04.839Z,1030.84
2018-02-21T08:51:32.009Z,1030.81
2018-02-21T08:52:59.000Z,1030.85
2018-02-21T08:54:26.150Z,1030.85
2018-02-21T08:55:53.247Z,1030.84
2018-02-21T08:57:19.744Z,1030.86
2018-02-21T08:58:46.478Z,1030.82
2018-02-21T09:00:13.588Z,1030.82
2018-02-21T09:01:39.904Z,1030.80
2018-02-21T09:03:06.624Z,1030.80
2018-02-21T09:04:33.362Z,1030.82
2018-02-21T09:06:00.450Z,1030.80
2018-02-21T09:07:27.589Z,1030.78
2018-02-21T09:08:54.937Z,1030.77
2018-02-21T09:10:22.195Z,1030.77
2018-02-21T09:11:49.284Z,1030.80
2018-02-21T09:13:16.349Z,1030.80
2018-02-21T09:14:43.607Z,1030.79
2018-02-21T09:16:10.813Z,1030.81
2018-02-21T09:17:37.820Z,1030.81
2018-02-21T09:19:04.941Z,1030.80
2018-02-21T09:20:31.918Z,1030.80
2018-02-21T09:21:58.589Z,1030.81
2018-02-21T09:23:26.034Z,1030.80
2018-02-21T09:24:53.204Z,1030.79
2018-02-21T09:26:20.572Z,1030.79
2018-02-21T09:27:47.659Z,1030.79
2018-02-21T09:29:14.882Z,1030.80
2018-02-21T09:30:42.225Z,1030.81
2018-02-21T09:32:09.325Z,1030.80
2018-02-21T09:33:36.001Z,1030.78
2018-02-21T09:35:03.141Z,1030.76
2018-02-21T09:36:30.244Z,1030.75
2018-02-21T09:37:57.402Z,1030.74
2018-02-21T09:39:24.692Z,1030.76
2018-02-21T09:40:52.019Z,1030.76
2018-02-21T09:42:19.354Z,1030.77
2018-02-21T09:43:46.371Z,1030.75
2018-02-21T09:45:13.543Z,1030.76
2018-02-21T09:46:40.624Z,1030.75
2018-02-21T09:48:06.992Z,1030.77
2018-02-21T09:49:33.860Z,1030.73
2018-02-21T09:51:00.735Z,1030.73
2018-02-21T09:52:27.936Z,1030.76
2018-02-21T09:53:54.851Z,1030.73
2018-02-21T09:55:21.894Z,1030.73
2018-02-21T09:56:48.964Z,1030.74
2018-02-21T09:58:16.153Z,1030.75
2018-02-21T09:59:43.514Z,1030.76
2018-02-21T10:01:10.799Z,1030.78
2018-02-21T10:02:38.074Z,1030.76
2018-02-21T10:04:05.397Z,1030.79
2018-02-21T10:05:32.322Z,1030.76
2018-02-21T10:06:59.565Z,1030.74
2018-02-21T10:08:26.562Z,1030.73
2018-02-21T10:09:53.691Z,1030.73
2018-02-21T10:11:20.752Z,1030.72
2018-02-21T10:12:48.297Z,1030.73
2018-02-21T10:14:15.576Z,1030.72
2018-02-21T10:15:42.896Z,1030.70
2018-02-21T10:17:10.081Z,1030.72
2018-02-21T10:18:37.381Z,1030.73
2018-02-21T10:20:04.588Z,1030.75
2018-02-21T10:21:31.859Z,1030.74
2018-02-21T10:22:58.882Z,1030.75
2018-02-21T10:24:26.242Z,1030.72
2018-02-21T10:25:53.276Z,1030.72
2018-02-21T10:27:20.589Z,1030.72
2018-02-21T10:28:47.822Z,1030.73
2018-02-21T10:30:14.899Z,1030.76
2018-02-21T10:31:42.229Z,1030.79
2018-02-21T10:33:09.557Z,1030.78
2018-02-21T10:34:36.690Z,1030.81
2018-02-21T10:36:03.905Z,1030.78
2018-02-21T10:37:30.864Z,1030.77
2018-02-21T10:38:58.021Z,1030.78
2018-02-21T10:40:25.279Z,1030.79
2018-02-21T10:41:52.473Z,1030.80
2018-02-21T10:43:19.691Z,1030.78
2018-02-21T10:44:47.075Z,1030.77
2018-02-21T10:46:14.330Z,1030.78
2018-02-21T10:47:41.509Z,1030.79
2018-02-21T10:49:08.749Z,1030.79
2018-02-21T10:50:35.880Z,1030.78
2018-02-21T10:52:02.781Z,1030.75
2018-02-21T10:53:29.749Z,1030.76
2018-02-21T10:54:56.488Z,1030.77
2018-02-21T10:56:23.245Z,1030.78
2018-02-21T10:57:50.327Z,1030.78
2018-02-21T10:59:17.408Z,1030.81
2018-02-21T11:00:44.559Z,1030.79
2018-02-21T11:02:11.506Z,1030.81
2018-02-21T11:03:38.697Z,1030.84
2018-02-21T11:05:05.901Z,1030.82
2018-02-21T11:06:32.936Z,1030.87
2018-02-21T11:07:59.802Z,1030.88
2018-02-21T11:09:27.109Z,1030.87
2018-02-21T11:10:54.409Z,1030.85
2018-02-21T11:12:21.585Z,1030.83
2018-02-21T11:13:48.375Z,1030.82
2018-02-21T11:15:14.955Z,1030.79
2018-02-21T11:16:42.285Z,1030.78
2018-02-21T11:18:09.469Z,1030.78
2018-02-21T11:19:36.425Z,1030.78
2018-02-21T11:21:03.568Z,1030.78
2018-02-21T11:22:30.833Z,1030.76
2018-02-21T11:23:57.787Z,1030.74
2018-02-21T11:25:24.670Z,1030.74
2018-02-21T11:26:51.496Z,1030.74
2018-02-21T11:28:18.428Z,1030.71
2018-02-21T11:29:45.554Z,1030.71
2018-02-21T11:31:12.855Z,1030.71
2018-02-21T11:32:40.103Z,1030.74
2018-02-21T11:34:07.327Z,1030.73
2018-02-21T11:35:34.566Z,1030.71
2018-02-21T11:37:01.684Z,1030.72
2018-02-21T11:38:28.714Z,1030.71
2018-02-21T11:39:55.410Z,1030.75
2018-02-21T11:41:22.548Z,1030.77
2018-02-21T11:42:49.852Z,1030.78
2018-02-21T11:44:17.078Z,1030.79
2018-02-21T11:45:44.430Z,1030.81
2018-02-21T11:47:11.740Z,1030.78
2018-02-21T11:48:38.779Z,1030.78
2018-02-21T11:50:06.075Z,1030.78
2018-02-21T11:51:33.279Z,1030.76
2018-02-21T11:53:00.458Z,1030.76
2018-02-21T11:54:27.768Z,1030.73
2018-02-21T11:55:54.665Z,1030.70
2018-02-21T11:57:21.821Z,1030.70
2018-02-21T11:58:48.661Z,1030.67
2018-02-21T12:00:15.758Z,1030.66
2018-02-21T12:01:42.993Z,1030.69
2018-02-21T12:03:09.945Z,1030.69
2018-02-21T12:04:37.065Z,1030.70
2018-02-21T12:06:04.006Z,1030.70
2018-02-21T12:07:31.081Z,1030.70
2018-02-21T12:08:58.411Z,1030.70
2018-02-21T12:10:25.489Z,1030.72
2018-02-21T12:11:52.629Z,1030.72
2018-02-21T12:13:19.333Z,1030.72
2018-02-21T12:14:46.252Z,1030.74
2018-02-21T12:16:13.532Z,1030.73
2018-02-21T12:17:40.632Z,1030.71
2018-02-21T12:19:07.506Z,1030.70
2018-02-21T12:20:34.165Z,1030.71
2018-02-21T12:22:01.080Z,1030.66
2018-02-21T12:23:28.422Z,1030.66
2018-02-21T12:24:55.645Z,1030.65
2018-02-21T12:26:22.883Z,1030.62
2018-02-21T12:27:49.680Z,1030.59
2018-02-21T12:29:17.028Z,1030.59
2018-02-21T12:30:44.276Z,1030.57
2018-02-21T12:32:11.515Z,1030.58
2018-02-21T12:33:38.731Z,1030.58
2018-02-21T12:35:05.987Z,1030.57
2018-02-21T12:36:33.069Z,1030.57
2018-02-21T12:37:59.700Z,1030.54
2018-02-21T12:39:26.692Z,1030.54
2018-02-21T12:40:53.967Z,1030.56
2018-02-21T12:42:21.251Z,1030.53
2018-02-21T12:43:48.485Z,1030.52
2018-02-21T12:45:15.713Z,1030.52
2018-02-21T12:46:42.612Z,1030.50
2018-02-21T12:48:09.942Z,1030.49
2018-02-21T12:49:37.053Z,1030.51
2018-02-21T12:51:03.945Z,1030.48
2018-02-21T12:52:30.927Z,1030.48
2018-02-21T12:53:58.139Z,1030.47
2018-02-21T12:55:25.048Z,1030.46
2018-02-21T12:56:52.162Z,1030.48
2018-02-21T12:58:19.428Z,1030.48
2018-02-21T12:59:46.644Z,1030.46
2018-02-21T13:01:13.709Z,1030.44
2018-02-21T13:02:40.916Z,1030.43
2018-02-21T13:04:07.977Z,1030.43
2018-02-21T13:05:35.337Z,1030.41
2018-02-21T13:07:02.481Z,1030.40
2018-02-21T13:08:29.089Z,1030.39
2018-02-21T13:09:56.322Z,1030.38
2018-02-21T13:11:23.397Z,1030.39
2018-02-21T13:12:50.648Z,1030.40
2018-02-21T13:14:17.971Z,1030.42
2018-02-21T13:15:45.216Z,1030.43
2018-02-21T13:17:12.171Z,1030.43
2018-02-21T13:18:39.241Z,1030.42
2018-02-21T13:20:06.539Z,1030.42
2018-02-21T13:21:33.646Z,1030.45
2018-02-21T13:23:01.001Z,1030.43
2018-02-21T13:24:28.070Z,1030.46
2018-02-21T13:25:55.424Z,1030.45
2018-02-21T13:27:22.571Z,1030.42
2018-02-21T13:28:49.375Z,1030.40
2018-02-21T13:30:16.661Z,1030.39
2018-02-21T13:31:43.780Z,1030.41
2018-02-21T13:33:11.205Z,1030.42
2018-02-21T13:34:38.423Z,1030.42
2018-02-21T13:36:05.449Z,1030.41
2018-02-21T13:37:32.594Z,1030.44
2018-02-21T13:38:59.411Z,1030.46
2018-02-21T13:40:26.721Z,1030.44
2018-02-21T13:41:53.588Z,1030.45
2018-02-21T13:43:20.633Z,1030.46
2018-02-21T13:44:47.308Z,1030.48
2018-02-21T13:46:14.589Z,1030.45
2018-02-21T13:47:41.278Z,1030.48
2018-02-21T13:49:07.946Z,1030.49
2018-02-21T13:50:35.192Z,1030.52
2018-02-21T13:52:02.069Z,1030.51
2018-02-21T13:53:29.797Z,1030.51
2018-02-21T13:54:55.428Z,1030.51
2018-02-21T13:56:22.310Z,1030.48
2018-02-21T13:57:49.484Z,1030.49
2018-02-21T13:59:16.432Z,1030.50
2018-02-21T14:00:43.579Z,1030.51
2018-02-21T14:02:10.409Z,1030.53
2018-02-21T14:03:37.672Z,1030.54
2018-02-21T14:05:04.821Z,1030.51
2018-02-21T14:06:31.901Z,1030.51
2018-02-21T14:07:58.633Z,1030.50
2018-02-21T14:09:25.829Z,1030.47
2018-02-21T14:10:52.630Z,1030.46
2018-02-21T14:12:19.241Z,1030.44
2018-02-21T14:13:45.863Z,1030.44
2018-02-21T14:15:13.062Z,1030.39
2018-02-21T14:16:40.345Z,1030.41
2018-02-21T14:18:07.535Z,1030.36
2018-02-21T14:19:34.837Z,1030.36
2018-02-21T14:21:01.946Z,1030.34
2018-02-21T14:22:28.893Z,1030.32
2018-02-21T14:23:55.999Z,1030.29
2018-02-21T14:25:23.131Z,1030.31
2018-02-21T14:26:50.379Z,1030.27
2018-02-21T14:28:17.669Z,1030.26
2018-02-21T14:29:44.792Z,1030.29
2018-02-21T14:31:12.142Z,1030.30
2018-02-21T14:32:39.088Z,1030.30
2018-02-21T14:34:06.278Z,1030.28
2018-02-21T14:35:33.455Z,1030.28
2018-02-21T14:37:00.310Z,1030.26
2018-02-21T14:38:27.311Z,1030.26
2018-02-21T14:39:54.490Z,1030.28
2018-02-21T14:41:21.553Z,1030.30
2018-02-21T14:42:48.273Z,1030.30
2018-02-21T14:44:15.142Z,1030.31
2018-02-21T14:45:42.461Z,1030.26
2018-02-21T14:47:09.594Z,1030.25
2018-02-21T14:48:36.775Z,1030.25
2018-02-21T14:50:04.016Z,1030.22
2018-02-21T14:51:31.106Z,1030.21
2018-02-21T14:52:58.465Z,1030.20
2018-02-21T14:54:25.429Z,1030.17
2018-02-21T14:55:52.771Z,1030.15
2018-02-21T14:57:20.097Z,1030.17
2018-02-21T14:58:46.699Z,1030.18
2018-02-21T15:00:13.921Z,1030.17
2018-02-21T15:01:40.345Z,1030.17
2018-02-21T15:03:07.554Z,1030.18
2018-02-21T15:04:34.585Z,1030.19
2018-02-21T15:06:01.670Z,1030.18
2018-02-21T15:07:28.702Z,1030.17
2018-02-21T15:08:55.748Z,1030.19
2018-02-21T15:10:22.913Z,1030.18
2018-02-21T15:11:50.225Z,1030.18
2018-02-21T15:13:17.493Z,1030.19
2018-02-21T15:14:44.689Z,1030.17
2018-02-21T15:16:12.016Z,1030.18
2018-02-21T15:17:39.084Z,1030.20
2018-02-21T15:19:05.974Z,1030.23
2018-02-21T15:20:33.217Z,1030.23
2018-02-21T15:22:00.409Z,1030.23
2018-02-21T15:23:27.573Z,1030.22
2018-02-21T15:24:54.801Z,1030.24
2018-02-21T15:26:22.108Z,1030.24
2018-02-21T15:27:49.387Z,1030.26
2018-02-21T15:29:16.712Z,1030.27
2018-02-21T15:30:43.825Z,1030.26
2018-02-21T15:32:11.065Z,1030.23
2018-02-21T15:33:38.318Z,1030.23
2018-02-21T15:35:05.411Z,1030.23
2018-02-21T15:36:32.252Z,1030.21
2018-02-21T15:37:59.246Z,1030.21
2018-02-21T15:39:26.237Z,1030.21
2018-02-21T15:40:53.636Z,1030.23
2018-02-21T15:42:20.848Z,1030.23
2018-02-21T15:43:47.922Z,1030.22
2018-02-21T15:45:15.141Z,1030.24
2018-02-21T15:46:42.209Z,1030.23
2018-02-21T15:48:09.312Z,1030.25
2018-02-21T15:49:35.936Z,1030.26
2018-02-21T15:51:03.203Z,1030.25
2018-02-21T15:52:29.704Z,1030.26
2018-02-21T15:53:57.046Z,1030.26
2018-02-21T15:55:24.181Z,1030.26
2018-02-21T15:56:51.286Z,1030.26
2018-02-21T15:58:18.629Z,1030.25
2018-02-21T15:59:46.055Z,1030.25
2018-02-21T16:01:13.062Z,1030.22
2018-02-21T16:02:40.163Z,1030.24
2018-02-21T16:04:07.418Z,1030.23
2018-02-21T16:05:34.308Z,1030.23
2018-02-21T16:07:01.179Z,1030.20
2018-02-21T16:08:27.928Z,1030.21
2018-02-21T16:09:55.019Z,1030.20
2018-02-21T16:11:21.817Z,1030.20
2018-02-21T16:12:48.902Z,1030.22
2018-02-21T16:14:15.991Z,1030.20
2018-02-21T16:15:43.130Z,1030.21
2018-02-21T16:17:10.243Z,1030.20
2018-02-21T16:18:37.309Z,1030.21
2018-02-21T16:20:03.972Z,1030.23
2018-02-21T16:21:31.077Z,1030.21
2018-02-21T16:22:57.626Z,1030.21
2018-02-21T16:24:24.855Z,1030.19
2018-02-21T16:25:52.142Z,1030.18
2018-02-21T16:27:18.839Z,1030.18
2018-02-21T16:28:46.074Z,1030.19
2018-02-21T16:30:13.205Z,1030.16
2018-02-21T16:31:40.435Z,1030.17
2018-02-21T16:33:07.463Z,1030.15
2018-02-21T16:34:34.504Z,1030.16
2018-02-21T16:36:01.697Z,1030.16
2018-02-21T16:37:28.680Z,1030.18
2018-02-21T16:38:55.855Z,1030.19
2018-02-21T16:40:23.054Z,1030.22
2018-02-21T16:41:50.326Z,1030.24
2018-02-21T16:43:16.723Z,1030.27
2018-02-21T16:44:43.805Z,1030.26
2018-02-21T16:46:10.976Z,1030.29
2018-02-21T16:47:38.196Z,1030.29
2018-02-21T16:49:05.113Z,1030.30
2018-02-21T16:50:32.324Z,1030.34
2018-02-21T16:51:58.656Z,1030.33
2018-02-21T16:53:25.758Z,1030.36
2018-02-21T16:54:51.976Z,1030.38
2018-02-21T16:56:19.325Z,1030.39
2018-02-21T16:57:46.453Z,1030.39
2018-02-21T16:59:13.108Z,1030.40
2018-02-21T17:00:39.475Z,1030.39
2018-02-21T17:02:06.652Z,1030.40
2018-02-21T17:03:33.137Z,1030.41
2018-02-21T17:05:00.292Z,1030.40
2018-02-21T17:06:27.511Z,1030.41
2018-02-21T17:07:53.942Z,1030.41
2018-02-21T17:09:21.094Z,1030.44
2018-02-21T17:10:48.209Z,1030.45
2018-02-21T17:12:15.358Z,1030.46
2018-02-21T17:13:42.695Z,1030.46
2018-02-21T17:15:09.807Z,1030.48
2018-02-21T17:16:36.428Z,1030.48
2018-02-21T17:18:03.462Z,1030.51
2018-02-21T17:19:30.577Z,1030.51
2018-02-21T17:20:57.988Z,1030.54
2018-02-21T17:22:26.052Z,1030.53
2018-02-21T17:23:51.695Z,1030.55
2018-02-21T17:25:26.839Z,1030.58
2018-02-21T17:26:45.938Z,1030.59
2018-02-21T17:28:13.017Z,1030.58
2018-02-21T17:29:39.408Z,1030.60
2018-02-21T17:31:06.409Z,1030.63
2018-02-21T17:32:33.452Z,1030.64